Santa Paula, CA

11:35 PM PST on February 05, 2016 (GMT -0800)
Palm | | Change Station
CLOSE
Current Station
Personal Weather Station
Location: Santa Paula, CA
Elevation: 285 ft
Nearby Weather Stations
Active Advisory: Wind Advisory

Elev 285 ft 34.35 °N, 119.07 °W | Updated 8 minutes ago

Clear
Clear
61.9 °F
Feels Like 61.9 °F
N
8.3
Wind Variable Wind from ENE

Today
High -- | Low -- °F
--% Chance of Precip.
Yesterday
High -- | Low -- °F
Precip. -- in
Pressure 30.33 in
Visibility 10.0 miles
Clouds Clear
Dew Point 26 °F
Humidity 25%
Rainfall 0.00 in
Snow Depth Not available.
6:51 AM 5:29 PM
Waning Crescent, 7% visible
METAR KCMA 060655Z 07011KT 10SM CLR 18/M05 A3031 RMK AO2 SLP271 T01781050 $
Pressure 30.33 in
Visibility 10.0 miles
Clouds Clear
Dew Point 26 °F
Humidity 25%
Rainfall 0.00 in
Snow Depth Not available.
6:51 AM 5:29 PM
Waning Crescent, 7% visible
METAR KCMA 060655Z 07011KT 10SM CLR 18/M05 A3031 RMK AO2 SLP271 T01781050 $

10-Day Weather Forecast

Almanac

Astronomy

Feb. 05, 2016 Rise Set
Actual Time
Civil Twilight
Nautical Twilight
Astronomical Twilight
Moon
Length of Visible Light
Length of Day
Tomorrow will be .
, % of the Moon is Illuminated

Today's Extremes

State Highs State Lows

Community

WunderPhotos

Upload Photos

1,890,933 photos uploaded!

WunderBlog® & News

Nearby

Air Quality

  Air Quality AQ Index Pollutant
Not available.

Snow Depth

Station Depth Elevation

Earthquake Activity

City Distance Mag. Time & Date
Minimum magnitude displayed is 2.5.

Coastal Water Temperatures

Place Temperature

Stations

Nearby Weather Stations

Station Location Temp. Windchill Dew Point Humidity Wind Precip. Elev Updated Type
                   

Watches & Warnings

Wind Advisory
Issued: 8:05 PM PST Feb. 5, 2016 – National Weather Service

... Wind Advisory remains in effect until 2 PM PST Saturday...

* winds... areas of northeast winds 20 to 30 with gusts to 45 mph.
Locations most prone to Santa Ana winds include the eastern
portion of Ventura County... the Santa Clarita valley... the
western San Fernando Valley... and the Santa Monica Mountains.

* Impacts... gusty winds will make driving difficult... especially
for drivers of high profile vehicles.

Precautionary/preparedness actions...

When driving... use extra caution. Be prepared for sudden gusty
cross winds.